Impacts METAR Board
IDs:

KIAH - Houston/Bush Intl, TX, US

Updated at: 0800 UTC 19 Jun 2018
Potential Impact None Slight Moderate High
Time 18/20Z 18/21Z 18/22Z 18/23Z 19/00Z 19/01Z 19/02Z 19/03Z 19/04Z 19/05Z 19/06Z 19/07Z 19/08Z
Temp79 83 82 79 78 77 76 76 76 75 76 76 75
Dewpt77 76 75 76 76 76 75 76 76 75 75 76 74
Altim29.94 29.92 29.92 29.92 29.92 29.92 29.93 29.95 29.96 29.96 29.95 29.93 29.92
VIS10 10 10 10 5 8 10 10 7 2 7 3 3
CIG9 100 95 33 36 33 55 25 24 15 10 20 10
CoverBKNBKNBKNBKNOVCOVCBKNBKNBKNOVCOVCOVCOVC
FltCatIFRVFRVFRVFRMVFRVFRVFRMVFRMVFRIFRMVFRMVFRMVFR
WX-RA-----RA-RA BR-RA-RA---RARA BR-RARA BRRA BR
WDir909010012012090110110110120130120130
WSpd12 17 16 12 12 12 10 9 11 8 11 11 14
WGst-- -- -- -- -- -- -- -- -- -- -- -- --
Raw hourly METARs
KIAH 181953Z 09012KT 10SM -RA BKN009 BKN100 BKN250 26/25 A2994 RMK AO2 RAB09 SLP138 P0000 T02610250
KIAH 182053Z 09017KT 10SM SCT012 SCT035 BKN100 BKN160 BKN250 28/24 A2992 RMK AO2 RAE15 SLP132 P0000 60005 T02830244 58012
KIAH 182153Z 10016KT 10SM SCT016 SCT036 BKN095 BKN150 BKN250 28/24 A2992 RMK AO2 SLP131 T02780239
KIAH 182253Z 12012KT 10SM -RA SCT017 BKN033 BKN090 BKN160 26/24 A2992 RMK AO2 RAB35 SLP132 P0000 T02610244
KIAH 182353Z 12012KT 5SM -RA BR SCT012 BKN036 OVC050 26/24 A2992 RMK AO2 SLP132 P0001 60006 T02560244 10289 20244 55000
KIAH 190053Z 09012KT 8SM -RA SCT009 BKN033 OVC055 25/24 A2992 RMK AO2 SLP133 P0003 T02500244
KIAH 190153Z 11010KT 10SM -RA FEW009 SCT034 BKN055 BKN160 BKN250 24/24 A2993 RMK AO2 RAE22B45 SLP135 P0000 T02440239
KIAH 190253Z 11009KT 10SM SCT011 BKN025 BKN055 BKN150 24/24 A2995 RMK AO2 RAE0158B17E30 SLP143 P0000 60003 T02440244 53010
KIAH 190353Z 11011KT 7SM -RA SCT008 BKN024 BKN040 BKN130 24/24 A2996 RMK AO2 RAB18 SLP146 P0003 T02440244 $
KIAH 190453Z 12008KT 2SM RA BR FEW005 BKN015TCU OVC035 24/24 A2996 RMK AO2 SLP145 TCU ALQDS P0067 T02390239 $
KIAH 190553Z 13011KT 7SM -RA SCT005 BKN010TCU OVC050 24/24 A2995 RMK AO2 PK WND 13026/0536 SLP141 TCU NW-NE P0077 60150 T02440239 10256 20239 402890239 58001 $
KIAH 190653Z 12011KT 3SM RA BR SCT010TCU BKN020 OVC048 24/24 A2993 RMK AO2 RAE22B47 SLP133 TCU OHD P0008 T02440244 $
KIAH 190753Z 13014KT 3SM RA BR FEW005 BKN010 OVC030 24/23 A2992 RMK AO2 PK WND 16027/0709 SLP132 P0014 T02390233 $



Page loaded:  08:53 UTC  |   01:53 AM Pacific  |   02:53 AM Mountain  |   03:53 AM Central  |   04:53 AM Eastern

 

ADVISORIES

FORECASTS

FORECASTS

OBSERVATIONS

USER TOOLS

ABOUT US